Time;durP1;ratioP1;P1;durP2;ratioP2;P2;SDS_P1;SDS_P2;PMS_P1;PMS_P2;Temp;Humidity;BMP_temperature;BMP_pressure;BME280_temperature;BME280_humidity;BME280_pressure;Samples;Min_cycle;Max_cycle;Signal;HPM_P1;HPM_P2
2022/07/16 00:02:54;;;;;;;1.57;0.80;;;;;;;13.62;92.55;101094.13;5019556;28;20623;-76
2022/07/16 00:05:21;;;;;;;0.60;0.60;;;;;;;13.62;91.72;101088.03;5044223;23;20312;-75
2022/07/16 00:07:47;;;;;;;0.70;0.70;;;;;;;13.58;89.87;101083.81;5044959;28;20201;-76
2022/07/16 00:10:14;;;;;;;1.33;0.77;;;;;;;13.66;92.90;101071.28;5050672;28;20233;-76
2022/07/16 00:12:40;;;;;;;0.80;0.70;;;;;;;13.67;92.49;101069.53;5048120;28;20209;-76
2022/07/16 00:15:07;;;;;;;0.50;0.50;;;;;;;13.67;91.35;101072.13;5050496;28;20216;-76
2022/07/16 00:17:34;;;;;;;0.77;0.60;;;;;;;13.66;92.47;101070.44;5048546;28;20213;-75
2022/07/16 00:20:00;;;;;;;0.77;0.77;;;;;;;13.63;90.69;101069.63;5070127;22;20242;-74
2022/07/16 00:22:27;;;;;;;0.87;0.73;;;;;;;13.72;92.93;101068.50;5058345;28;20784;-75
2022/07/16 00:24:53;;;;;;;1.17;0.57;;;;;;;13.75;92.51;101073.59;5059720;28;20687;-74
2022/07/16 00:27:20;;;;;;;0.70;0.70;;;;;;;13.70;92.16;101078.16;5059334;28;20607;-74
2022/07/16 00:29:48;;;;;;;1.50;0.80;;;;;;;13.64;92.69;101066.09;5063632;28;20213;-74
2022/07/16 00:32:14;;;;;;;0.87;0.80;;;;;;;13.61;91.61;101071.47;5060942;28;20205;-73
2022/07/16 00:34:41;;;;;;;2.17;0.70;;;;;;;13.59;90.35;101069.78;5064453;28;20231;-74
2022/07/16 00:37:09;;;;;;;0.70;0.70;;;;;;;13.58;91.99;101065.47;5048854;28;20201;-74
2022/07/16 00:39:36;;;;;;;1.00;0.80;;;;;;;13.62;92.21;101069.69;5055293;28;20231;-74
2022/07/16 00:42:02;;;;;;;0.60;0.60;;;;;;;13.50;89.29;101068.31;5061904;28;20208;-73
2022/07/16 00:44:28;;;;;;;0.87;0.60;;;;;;;13.61;93.09;101060.09;5060705;28;20197;-74
2022/07/16 00:46:55;;;;;;;1.53;0.73;;;;;;;13.60;93.52;101059.25;5062991;28;20695;-74
2022/07/16 00:49:21;;;;;;;0.70;0.60;;;;;;;13.62;93.91;101056.59;5056301;28;20234;-73
2022/07/16 00:51:51;;;;;;;0.83;0.70;;;;;;;13.61;93.98;101058.34;5056599;28;20209;-75
2022/07/16 00:54:19;;;;;;;1.23;0.70;;;;;;;13.69;94.20;101052.00;5060716;28;20478;-74
2022/07/16 00:56:46;;;;;;;4.60;0.87;;;;;;;13.66;93.33;101052.94;5062843;28;20205;-74
2022/07/16 00:59:12;;;;;;;0.63;0.60;;;;;;;13.60;92.25;101053.16;5057200;28;20224;-73
2022/07/16 01:01:39;;;;;;;0.80;0.70;;;;;;;13.66;95.04;101044.25;5059242;28;20265;-74
2022/07/16 01:04:07;;;;;;;0.70;0.70;;;;;;;13.57;92.21;101046.25;5059050;28;20224;-74
2022/07/16 01:06:35;;;;;;;0.80;0.80;;;;;;;13.59;92.77;101040.97;5063824;28;20216;-74
2022/07/16 01:09:02;;;;;;;0.70;0.70;;;;;;;13.62;94.92;101043.47;5061980;28;20229;-74
2022/07/16 01:11:31;;;;;;;0.87;0.80;;;;;;;13.69;95.95;101028.44;5063362;28;20272;-74
2022/07/16 01:13:59;;;;;;;0.70;0.70;;;;;;;13.64;94.98;101034.66;5063971;28;20626;-74
2022/07/16 01:16:25;;;;;;;0.80;0.70;;;;;;;13.60;93.95;101030.44;5063837;28;20221;-75
2022/07/16 01:18:52;;;;;;;0.60;0.60;;;;;;;13.63;96.03;101025.09;5065036;28;20233;-74
2022/07/16 01:21:18;;;;;;;0.70;0.70;;;;;;;13.64;94.92;101032.03;5059499;28;20216;-74
2022/07/16 01:23:49;;;;;;;0.60;0.60;;;;;;;13.58;94.34;101029.63;5063900;28;20209;-74
2022/07/16 01:26:15;;;;;;;1.60;0.87;;;;;;;13.61;95.71;101023.41;5063768;28;20736;-75
2022/07/16 01:28:42;;;;;;;0.50;0.50;;;;;;;13.65;95.98;101022.44;5065996;28;20217;-74
2022/07/16 01:31:08;;;;;;;0.60;0.60;;;;;;;13.53;94.94;101030.69;5064558;28;20221;-74
2022/07/16 01:33:37;;;;;;;1.60;0.60;;;;;;;13.54;95.61;101029.75;5068364;28;20226;-74
2022/07/16 01:36:07;;;;;;;1.27;0.60;;;;;;;13.57;96.69;101027.91;5064359;28;20505;-74
2022/07/16 01:38:34;;;;;;;1.07;0.77;;;;;;;13.54;94.82;101032.38;5066658;28;20224;-74
2022/07/16 01:41:02;;;;;;;0.60;0.60;;;;;;;13.49;95.18;101026.44;5067239;28;20209;-74
2022/07/16 01:43:30;;;;;;;1.27;0.60;;;;;;;13.51;96.94;101020.25;5061590;28;20206;-73
2022/07/16 01:45:58;;;;;;;3.53;0.80;;;;;;;13.52;95.85;101023.72;5060719;28;20618;-74
2022/07/16 01:48:24;;;;;;;1.00;0.77;;;;;;;13.54;96.45;101021.91;5061403;28;20220;-74
2022/07/16 01:50:53;;;;;;;2.43;0.63;;;;;;;13.57;97.31;101019.19;5063421;28;20219;-74
2022/07/16 01:53:19;;;;;;;1.07;0.80;;;;;;;13.67;98.28;101014.50;5063244;28;20219;-74
2022/07/16 01:55:46;;;;;;;0.87;0.80;;;;;;;13.62;97.88;101007.66;5080842;28;20207;-73
2022/07/16 01:58:15;;;;;;;1.07;0.80;;;;;;;13.70;98.56;101002.19;5081016;28;20204;-74
2022/07/16 02:00:44;;;;;;;2.03;0.73;;;;;;;13.64;97.04;101005.00;5076690;28;20751;-72
2022/07/16 02:03:12;;;;;;;0.70;0.70;;;;;;;13.62;96.90;101007.66;5077243;28;20184;-73
2022/07/16 02:05:39;;;;;;;2.97;0.70;;;;;;;13.66;98.25;101005.78;5076900;28;20212;-74
2022/07/16 02:08:06;;;;;;;0.83;0.50;;;;;;;13.70;98.19;101006.53;5070960;28;20205;-73
2022/07/16 02:10:33;;;;;;;1.37;0.80;;;;;;;13.66;96.61;101002.31;5070454;28;20222;-74
2022/07/16 02:12:59;;;;;;;0.73;0.63;;;;;;;13.61;96.83;101002.47;5069677;28;20198;-74
2022/07/16 02:15:27;;;;;;;1.07;0.80;;;;;;;13.58;95.93;100997.34;5070363;28;20215;-73
2022/07/16 02:17:54;;;;;;;1.07;0.57;;;;;;;13.56;96.21;100992.16;5072609;28;20212;-74
2022/07/16 02:20:20;;;;;;;0.50;0.50;;;;;;;13.61;97.39;100994.59;5072189;28;20228;-72
2022/07/16 02:22:46;;;;;;;1.47;0.87;;;;;;;13.53;96.72;100996.63;5075325;28;20192;-74
2022/07/16 02:25:47;;;;;;;0.97;0.80;;;;;;;13.49;96.38;100992.38;5071203;28;20774;-74
2022/07/16 02:28:13;;;;;;;0.80;0.53;;;;;;;13.48;95.54;100985.44;5063752;28;20200;-74
2022/07/16 02:30:43;;;;;;;0.73;0.60;;;;;;;13.51;96.72;100985.31;5063993;28;22084;-74
2022/07/16 02:33:11;;;;;;;0.67;0.60;;;;;;;13.48;95.15;100985.44;5063498;28;20210;-73
2022/07/16 02:35:39;;;;;;;1.40;0.40;;;;;;;13.44;95.72;100982.91;5061883;28;20479;-75
2022/07/16 02:38:07;;;;;;;1.67;0.87;;;;;;;13.50;96.81;100981.00;5060284;28;20202;-74
2022/07/16 02:40:34;;;;;;;0.63;0.60;;;;;;;13.50;96.57;100986.25;5057627;28;20236;-74
2022/07/16 02:43:01;;;;;;;0.50;0.50;;;;;;;13.54;97.15;100977.38;5061739;28;20228;-73
2022/07/16 02:45:28;;;;;;;0.70;0.63;;;;;;;13.56;98.37;100980.78;5062494;28;20198;-74
2022/07/16 02:47:56;;;;;;;0.80;0.77;;;;;;;13.48;96.25;100980.22;5065353;28;20829;-74
2022/07/16 02:50:22;;;;;;;1.60;0.60;;;;;;;13.52;97.41;100987.91;5059224;28;20505;-73
2022/07/16 02:52:49;;;;;;;0.50;0.50;;;;;;;13.53;98.48;100981.75;5061453;28;20208;-72
2022/07/16 02:55:16;;;;;;;0.40;0.40;;;;;;;13.51;97.27;100983.59;5061186;28;20224;-74
2022/07/16 02:57:42;;;;;;;0.70;0.60;;;;;;;13.44;97.14;100976.84;5060764;28;20268;-74
2022/07/16 03:00:11;;;;;;;2.03;0.60;;;;;;;13.47;98.24;100973.25;5061000;28;20225;-73
2022/07/16 03:02:37;;;;;;;1.40;0.77;;;;;;;13.45;98.77;100975.91;5060873;28;20291;-74
2022/07/16 03:05:07;;;;;;;0.57;0.57;;;;;;;13.36;97.61;100973.59;5061784;28;20414;-74
2022/07/16 03:07:33;;;;;;;0.87;0.63;;;;;;;13.34;97.65;100981.50;5061641;28;20209;-73
2022/07/16 03:10:00;;;;;;;0.50;0.50;;;;;;;13.31;97.29;100975.47;5046725;28;20260;-74
2022/07/16 03:12:26;;;;;;;0.60;0.60;;;;;;;13.27;96.92;100975.56;5059271;28;20197;-74
2022/07/16 03:14:53;;;;;;;1.20;0.80;;;;;;;13.39;99.45;100978.75;5063024;28;20302;-74
2022/07/16 03:17:19;;;;;;;3.17;0.60;;;;;;;13.36;98.03;100977.06;5060029;28;20213;-74
2022/07/16 03:19:45;;;;;;;0.60;0.60;;;;;;;13.29;95.61;100977.28;5062293;28;20223;-74
2022/07/16 03:22:13;;;;;;;0.60;0.60;;;;;;;13.35;97.70;100983.22;5057467;28;20207;-72
2022/07/16 03:24:39;;;;;;;0.50;0.50;;;;;;;13.28;96.28;100984.28;5064670;28;20697;-74
2022/07/16 03:27:06;;;;;;;0.50;0.50;;;;;;;13.33;97.23;100982.44;5061368;28;20206;-73
2022/07/16 03:29:32;;;;;;;0.60;0.60;;;;;;;13.24;93.69;100972.19;5057228;28;20221;-73
2022/07/16 03:31:59;;;;;;;0.90;0.80;;;;;;;13.39;98.44;100968.28;5058418;28;20285;-73
2022/07/16 03:34:25;;;;;;;0.53;0.50;;;;;;;13.30;94.21;100981.59;5060554;28;20218;-74
2022/07/16 03:36:52;;;;;;;0.60;0.50;;;;;;;13.35;96.89;100970.13;5061282;28;20205;-73
2022/07/16 03:39:19;;;;;;;1.00;0.57;;;;;;;13.39;97.87;100969.13;5060796;28;20223;-74
2022/07/16 03:41:46;;;;;;;0.50;0.50;;;;;;;13.37;96.76;100970.09;5063033;28;20195;-74
2022/07/16 03:44:12;;;;;;;0.50;0.50;;;;;;;13.42;97.67;100974.25;5058243;28;20257;-74
2022/07/16 03:46:39;;;;;;;2.13;0.50;;;;;;;13.39;95.35;100971.72;5060862;28;20201;-73
2022/07/16 03:49:06;;;;;;;0.60;0.60;;;;;;;13.41;95.84;100972.53;5058733;28;20211;-74
2022/07/16 03:51:33;;;;;;;0.43;0.40;;;;;;;13.42;96.37;100976.00;5060779;28;20201;-74
2022/07/16 03:54:00;;;;;;;1.00;0.80;;;;;;;13.42;97.47;100971.66;5058262;28;20208;-73
2022/07/16 03:56:28;;;;;;;1.47;0.53;;;;;;;13.46;95.85;100976.78;5060580;28;20193;-74
2022/07/16 03:58:54;;;;;;;0.57;0.57;;;;;;;13.40;93.54;100973.47;5063026;28;20221;-74
2022/07/16 04:01:21;;;;;;;1.57;0.90;;;;;;;13.30;92.02;100984.22;5057954;28;20217;-74
2022/07/16 04:03:47;;;;;;;0.80;0.80;;;;;;;13.23;92.16;100976.56;5062715;28;20280;-74
2022/07/16 04:06:14;;;;;;;0.63;0.63;;;;;;;13.34;93.44;100978.88;5059601;28;20202;-74
2022/07/16 04:08:40;;;;;;;0.70;0.70;;;;;;;13.34;92.70;100972.78;5061874;28;20448;-74
2022/07/16 04:11:07;;;;;;;2.70;0.80;;;;;;;13.33;93.15;100981.53;5060657;28;20201;-73
2022/07/16 04:13:37;;;;;;;1.30;0.67;;;;;;;13.35;93.44;100974.50;5062687;28;20200;-74
2022/07/16 04:16:04;;;;;;;2.33;0.80;;;;;;;13.40;92.29;100968.22;5057762;28;20217;-73
2022/07/16 04:18:30;;;;;;;0.90;0.83;;;;;;;13.37;91.81;100972.69;5066122;28;20459;-74
2022/07/16 04:20:57;;;;;;;0.70;0.70;;;;;;;13.40;91.26;100964.72;5062576;28;20205;-73
2022/07/16 04:23:23;;;;;;;4.03;0.60;;;;;;;13.36;89.35;100965.75;5062763;28;20206;-74
2022/07/16 04:25:50;;;;;;;0.70;0.70;;;;;;;13.32;88.00;100967.59;5060537;28;20577;-73
2022/07/16 04:28:16;;;;;;;1.33;0.93;;;;;;;13.41;89.94;100962.06;5062891;28;20205;-73
2022/07/16 04:30:44;;;;;;;0.70;0.60;;;;;;;13.40;89.11;100970.84;5065627;28;21000;-74
2022/07/16 04:33:11;;;;;;;0.83;0.60;;;;;;;13.43;87.58;100957.63;5064875;28;20198;-73
2022/07/16 04:35:37;;;;;;;1.30;0.80;;;;;;;13.55;88.86;100952.91;5065491;28;20222;-73
2022/07/16 04:38:04;;;;;;;0.70;0.70;;;;;;;13.56;86.96;100955.47;5063893;28;20212;-74
2022/07/16 04:40:30;;;;;;;0.50;0.50;;;;;;;13.63;86.18;100945.63;5062253;28;20232;-74
2022/07/16 04:42:57;;;;;;;0.57;0.50;;;;;;;13.72;86.72;100950.56;5060728;28;20260;-73
2022/07/16 04:45:23;;;;;;;0.67;0.67;;;;;;;13.81;84.96;100946.78;5060996;28;20610;-74
2022/07/16 04:47:51;;;;;;;0.80;0.60;;;;;;;13.93;86.53;100950.72;5066883;28;20210;-74
2022/07/16 04:50:18;;;;;;;0.80;0.67;;;;;;;14.05;86.13;100946.81;5061146;28;20322;-74
2022/07/16 04:52:44;;;;;;;0.53;0.53;;;;;;;14.16;84.13;100945.53;5068503;28;20687;-74
2022/07/16 04:55:10;;;;;;;1.00;0.70;;;;;;;14.35;85.11;100936.97;5065677;28;20254;-74
2022/07/16 04:57:37;;;;;;;0.50;0.50;;;;;;;14.43;83.47;100940.19;5064552;28;20195;-74
2022/07/16 05:00:05;;;;;;;0.63;0.50;;;;;;;14.56;83.55;100937.94;5063106;28;20238;-73
2022/07/16 05:05:13;;;;;;;0.80;0.80;;;;;;;14.79;81.58;100944.13;5044096;28;20611;-74
2022/07/16 05:07:39;;;;;;;0.90;0.63;;;;;;;14.81;79.77;100940.56;5064241;28;22157;-73
2022/07/16 05:10:07;;;;;;;0.47;0.47;;;;;;;14.86;79.35;100940.34;5065049;28;20236;-74
2022/07/16 05:12:33;;;;;;;0.40;0.40;;;;;;;15.00;79.10;100942.44;5063236;28;20195;-74
2022/07/16 05:14:59;;;;;;;0.40;0.40;;;;;;;15.18;78.40;100951.34;5071533;28;20601;-75
2022/07/16 05:17:26;;;;;;;0.50;0.40;;;;;;;15.21;76.17;100953.84;5063836;28;20199;-74
2022/07/16 05:19:52;;;;;;;1.10;0.53;;;;;;;15.19;75.57;100951.28;5063927;28;20246;-74
2022/07/16 05:22:20;;;;;;;0.40;0.40;;;;;;;15.19;76.84;100942.56;5058260;28;20210;-75
2022/07/16 05:24:46;;;;;;;0.67;0.50;;;;;;;15.10;74.73;100949.03;5065438;28;20195;-74
2022/07/16 05:27:13;;;;;;;1.47;0.60;;;;;;;15.04;76.33;100944.91;5065790;28;20206;-74
2022/07/16 05:29:39;;;;;;;0.40;0.40;;;;;;;15.09;77.77;100942.06;5061347;28;20230;-74
2022/07/16 05:32:06;;;;;;;0.90;0.60;;;;;;;15.11;76.52;100940.25;5062581;28;20214;-74
2022/07/16 05:34:33;;;;;;;0.60;0.50;;;;;;;15.13;75.79;100927.91;5067140;28;20301;-74
2022/07/16 05:36:59;;;;;;;0.40;0.40;;;;;;;15.18;76.20;100938.22;5062015;28;20201;-74
2022/07/16 05:39:27;;;;;;;0.40;0.40;;;;;;;15.20;76.24;100926.75;5062225;28;20218;-75
2022/07/16 05:41:53;;;;;;;0.20;0.20;;;;;;;15.28;75.43;100929.91;5065902;28;20197;-75
2022/07/16 05:44:19;;;;;;;1.33;0.30;;;;;;;15.46;75.64;100936.19;5061337;28;20634;-74
2022/07/16 05:46:46;;;;;;;1.60;0.50;;;;;;;15.61;73.71;100928.56;5062619;28;20206;-74
2022/07/16 05:49:12;;;;;;;0.60;0.57;;;;;;;15.75;74.30;100926.25;5061680;28;20226;-74
2022/07/16 05:51:38;;;;;;;1.07;0.47;;;;;;;15.88;73.55;100918.66;5062230;28;20216;-73
2022/07/16 05:54:05;;;;;;;0.50;0.40;;;;;;;15.91;72.67;100921.16;5061199;28;20206;-75
2022/07/16 05:56:32;;;;;;;0.30;0.30;;;;;;;15.90;71.36;100922.97;5060644;28;20638;-74
2022/07/16 05:59:02;;;;;;;0.67;0.50;;;;;;;16.00;72.11;100917.28;5062223;28;20400;-74
2022/07/16 06:01:28;;;;;;;1.30;0.30;;;;;;;16.05;70.63;100923.19;5057648;28;20845;-74
2022/07/16 06:03:55;;;;;;;0.70;0.43;;;;;;;16.15;70.75;100929.75;5063704;28;20217;-74
2022/07/16 06:06:21;;;;;;;0.87;0.40;;;;;;;16.23;70.73;100919.72;5059573;28;20199;-75
2022/07/16 06:08:47;;;;;;;0.60;0.40;;;;;;;16.36;72.72;100919.19;5062953;28;20661;-74
2022/07/16 06:11:14;;;;;;;0.73;0.43;;;;;;;16.38;69.76;100930.50;5064142;28;20205;-75
2022/07/16 06:13:41;;;;;;;0.33;0.33;;;;;;;16.41;68.58;100925.97;5060073;28;20495;-75
2022/07/16 06:16:08;;;;;;;0.50;0.50;;;;;;;16.50;69.99;100914.16;5060855;28;20206;-73
2022/07/16 06:18:35;;;;;;;0.30;0.30;;;;;;;16.52;68.34;100927.25;5058124;28;20211;-75
2022/07/16 06:21:02;;;;;;;0.40;0.40;;;;;;;16.54;70.17;100933.28;5074107;23;20702;-72
2022/07/16 06:23:28;;;;;;;0.23;0.23;;;;;;;16.56;68.60;100928.81;5056914;28;20200;-72
2022/07/16 06:25:55;;;;;;;0.53;0.33;;;;;;;16.63;68.40;100927.59;5060199;28;20217;-72
2022/07/16 06:28:21;;;;;;;0.83;0.50;;;;;;;16.66;68.35;100925.66;5060435;28;20207;-71
2022/07/16 06:30:49;;;;;;;1.03;0.30;;;;;;;16.68;67.33;100930.88;5046492;28;20234;-71
2022/07/16 06:33:15;;;;;;;1.70;0.50;;;;;;;16.83;66.94;100932.81;5041009;28;20202;-71
2022/07/16 06:35:41;;;;;;;0.40;0.40;;;;;;;16.99;66.75;100934.69;5039920;28;20215;-71
2022/07/16 06:38:08;;;;;;;0.67;0.50;;;;;;;17.03;66.69;100929.22;5043350;28;20210;-71
2022/07/16 06:40:34;;;;;;;1.70;0.40;;;;;;;17.06;67.73;100930.84;5040234;28;20228;-71
2022/07/16 06:43:01;;;;;;;0.80;0.50;;;;;;;16.88;64.84;100950.16;5041597;28;20207;-72
2022/07/16 06:45:27;;;;;;;0.30;0.30;;;;;;;16.86;66.95;100947.59;5041981;28;20199;-72
2022/07/16 06:47:55;;;;;;;0.83;0.63;;;;;;;16.87;65.69;100941.44;5036744;28;20195;-71
2022/07/16 06:50:24;;;;;;;0.70;0.53;;;;;;;17.03;66.07;100938.91;5039350;28;20322;-72
2022/07/16 06:52:50;;;;;;;0.77;0.50;;;;;;;17.11;65.91;100936.75;5039440;28;20210;-71
2022/07/16 06:55:17;;;;;;;0.30;0.30;;;;;;;17.12;64.95;100946.38;5039978;28;20223;-71
2022/07/16 06:57:43;;;;;;;2.43;0.67;;;;;;;17.08;67.42;100941.31;5036379;28;20298;-72
2022/07/16 07:00:11;;;;;;;0.60;0.40;;;;;;;16.87;67.44;100945.81;5041989;28;20316;-71
2022/07/16 07:02:37;;;;;;;0.40;0.40;;;;;;;16.83;67.85;100932.81;5041616;28;20286;-72
2022/07/16 07:05:06;;;;;;;0.70;0.50;;;;;;;16.80;68.21;100935.56;5038501;28;20674;-71
2022/07/16 07:07:32;;;;;;;0.77;0.50;;;;;;;16.77;69.32;100925.16;5040986;28;20574;-71
2022/07/16 07:09:59;;;;;;;0.73;0.57;;;;;;;16.73;68.97;100933.28;5036322;28;20230;-71
2022/07/16 07:12:25;;;;;;;1.30;0.60;;;;;;;16.69;69.35;100929.06;5033770;28;20207;-71
2022/07/16 07:14:51;;;;;;;0.50;0.50;;;;;;;16.74;69.46;100927.94;5036218;28;20262;-71
2022/07/16 07:17:18;;;;;;;1.00;0.47;;;;;;;16.83;70.63;100926.66;5034504;28;20241;-72
2022/07/16 07:19:44;;;;;;;0.57;0.50;;;;;;;16.99;70.29;100929.44;5040205;28;20717;-71
2022/07/16 07:22:12;;;;;;;0.37;0.33;;;;;;;17.12;70.71;100914.75;5034578;28;20709;-71
2022/07/16 07:24:38;;;;;;;0.60;0.60;;;;;;;17.12;70.28;100917.38;5037733;28;20204;-71
2022/07/16 07:27:05;;;;;;;0.43;0.43;;;;;;;17.06;71.17;100908.91;5034092;28;20196;-71
2022/07/16 07:29:32;;;;;;;1.17;0.70;;;;;;;17.05;71.23;100909.88;5038223;28;20621;-71
2022/07/16 07:31:58;;;;;;;0.77;0.50;;;;;;;17.10;71.42;100908.72;5032665;28;20200;-71
2022/07/16 07:34:25;;;;;;;0.63;0.50;;;;;;;17.31;72.78;100906.78;5035476;28;20664;-71
2022/07/16 07:36:51;;;;;;;2.37;0.47;;;;;;;17.30;71.79;100906.88;5037771;28;20718;-71
2022/07/16 07:39:19;;;;;;;0.53;0.53;;;;;;;17.33;71.79;100925.16;5034023;28;20199;-72
2022/07/16 07:41:45;;;;;;;0.60;0.60;;;;;;;17.30;73.11;100914.78;5038945;28;20218;-71
2022/07/16 07:44:11;;;;;;;0.50;0.50;;;;;;;17.37;73.55;100908.25;5036969;28;20215;-72
2022/07/16 07:46:38;;;;;;;2.27;0.60;;;;;;;17.42;75.06;100915.00;5038152;28;20192;-72
2022/07/16 07:49:04;;;;;;;0.50;0.50;;;;;;;17.41;73.57;100915.06;5033462;28;20207;-71
2022/07/16 07:51:31;;;;;;;1.77;0.83;;;;;;;17.49;73.17;100917.34;5032329;28;20212;-72
2022/07/16 07:53:57;;;;;;;0.80;0.40;;;;;;;17.63;73.35;100917.50;5041311;28;20599;-72
2022/07/16 07:56:24;;;;;;;0.60;0.60;;;;;;;17.78;73.54;100910.56;5036036;28;20211;-72
2022/07/16 07:58:51;;;;;;;0.80;0.60;;;;;;;17.84;71.69;100919.97;5038847;28;20202;-72
2022/07/16 08:01:17;;;;;;;1.57;0.53;;;;;;;17.73;73.39;100916.09;5046984;28;20233;-71
2022/07/16 08:03:43;;;;;;;1.17;0.53;;;;;;;17.74;75.06;100903.75;5045478;28;20230;-71
2022/07/16 08:06:10;;;;;;;0.60;0.60;;;;;;;17.68;75.61;100912.84;5042336;28;20209;-71
2022/07/16 08:08:36;;;;;;;1.00;0.70;;;;;;;17.62;73.77;100907.03;5038860;28;20672;-71
2022/07/16 08:11:03;;;;;;;0.50;0.50;;;;;;;17.66;76.37;100914.72;5041378;28;20222;-72
2022/07/16 08:13:30;;;;;;;0.80;0.60;;;;;;;17.76;79.53;100908.03;5042349;28;20199;-72
2022/07/16 08:15:57;;;;;;;0.60;0.60;;;;;;;17.71;81.56;100911.81;5044062;28;20222;-72
2022/07/16 08:18:23;;;;;;;2.97;0.60;;;;;;;17.64;82.07;100908.63;5036282;28;20207;-72
2022/07/16 08:20:49;;;;;;;3.43;0.80;;;;;;;17.49;80.91;100906.81;5042051;28;20575;-72
2022/07/16 08:25:44;;;;;;;0.70;0.70;;;;;;;17.30;79.68;100918.25;5038926;28;20198;-72
2022/07/16 08:26:01;;;;;;;1.10;0.80;;;;;;;17.36;82.05;100910.06;5041079;28;20289;-72
2022/07/16 08:28:28;;;;;;;1.43;0.87;;;;;;;17.41;81.88;100900.13;5043711;28;20268;-72
2022/07/16 08:30:56;;;;;;;0.70;0.63;;;;;;;17.46;81.14;100913.06;5040683;28;20721;-72
2022/07/16 08:33:22;;;;;;;1.10;0.80;;;;;;;17.42;76.98;100904.47;5045459;28;20196;-72
2022/07/16 08:35:49;;;;;;;0.83;0.67;;;;;;;17.58;77.17;100912.44;5044452;28;20214;-72
2022/07/16 08:38:15;;;;;;;0.80;0.60;;;;;;;17.69;75.97;100909.25;5045198;28;20770;-72
2022/07/16 08:40:42;;;;;;;0.80;0.70;;;;;;;17.78;75.81;100910.56;5044112;28;20684;-72
2022/07/16 08:43:09;;;;;;;0.63;0.63;;;;;;;17.79;73.76;100910.50;5038953;28;20230;-72
2022/07/16 08:45:36;;;;;;;1.20;0.80;;;;;;;17.92;72.72;100917.81;5044199;28;20203;-72
2022/07/16 08:48:04;;;;;;;0.77;0.70;;;;;;;18.00;72.61;100923.53;5044891;28;20203;-71
2022/07/16 08:50:31;;;;;;;0.73;0.70;;;;;;;17.92;72.57;100921.31;5038278;28;20584;-71
2022/07/16 08:52:58;;;;;;;2.17;0.97;;;;;;;17.82;70.64;100924.44;5042271;28;20557;-72
2022/07/16 08:55:26;;;;;;;0.70;0.70;;;;;;;17.70;72.28;100932.06;5040668;28;20926;-72
2022/07/16 08:57:53;;;;;;;1.03;0.77;;;;;;;17.58;71.64;100944.09;5044303;28;20477;-72
2022/07/16 09:00:20;;;;;;;0.83;0.67;;;;;;;17.46;71.05;100949.97;5044937;28;20807;-71
2022/07/16 09:02:47;;;;;;;0.50;0.47;;;;;;;17.36;70.89;100943.44;5047823;28;20698;-72
2022/07/16 09:05:15;;;;;;;0.67;0.67;;;;;;;17.26;71.58;100950.13;5041293;28;20203;-71
2022/07/16 09:07:42;;;;;;;0.90;0.70;;;;;;;17.19;72.01;100952.19;5043930;28;20202;-71
2022/07/16 09:10:09;;;;;;;3.90;0.90;;;;;;;17.15;72.43;100972.56;5043370;28;20223;-71
2022/07/16 09:12:39;;;;;;;0.80;0.80;;;;;;;17.06;72.38;100983.53;5036815;28;20192;-71
2022/07/16 09:15:25;;;;;;;1.10;0.90;;;;;;;16.91;79.83;100979.00;5036500;28;20208;-71
2022/07/16 09:18:11;;;;;;;1.43;0.80;;;;;;;16.38;84.63;100970.81;5042293;28;20658;-72
2022/07/16 09:20:41;;;;;;;0.93;0.90;;;;;;;16.30;87.66;100987.88;5035649;28;20615;-72
2022/07/16 09:23:18;;;;;;;1.07;0.97;;;;;;;16.06;89.04;100972.25;5038259;28;20475;-71
2022/07/16 09:25:49;;;;;;;2.70;1.00;;;;;;;16.09;90.64;100977.38;5037555;28;20244;-72
2022/07/16 09:28:15;;;;;;;1.17;1.03;;;;;;;16.14;91.16;100988.53;5040101;28;20215;-72
2022/07/16 09:30:42;;;;;;;1.17;1.00;;;;;;;16.08;92.22;100997.56;5041481;28;20219;-72
2022/07/16 09:33:12;;;;;;;0.80;0.80;;;;;;;16.18;95.24;100994.53;5044125;28;20681;-72
2022/07/16 09:35:40;;;;;;;2.43;1.00;;;;;;;16.14;95.99;100993.81;5039226;28;20280;-72
2022/07/16 09:38:09;;;;;;;0.90;0.90;;;;;;;16.17;96.70;100991.03;5034866;28;20554;-72
2022/07/16 09:40:37;;;;;;;1.33;0.90;;;;;;;16.21;96.54;100991.75;5039777;28;20226;-72
2022/07/16 09:43:18;;;;;;;1.13;1.03;;;;;;;16.31;96.13;100987.81;5038321;28;20224;-72
2022/07/16 09:45:46;;;;;;;2.87;1.03;;;;;;;16.33;94.37;100993.00;5043221;28;20205;-72
2022/07/16 09:48:20;;;;;;;1.67;1.13;;;;;;;16.29;92.67;100987.03;5038375;28;20188;-72
2022/07/16 09:50:49;;;;;;;2.53;1.30;;;;;;;16.32;92.67;101000.03;5036230;28;20232;-72
2022/07/16 09:53:17;;;;;;;1.53;1.07;;;;;;;16.39;91.23;101001.50;5042945;28;20200;-72
2022/07/16 09:56:02;;;;;;;0.70;0.70;;;;;;;16.41;91.16;101001.41;5042242;28;20199;-72
2022/07/16 09:58:29;;;;;;;1.27;0.63;;;;;;;16.43;90.79;100996.94;5038249;28;20231;-72
2022/07/16 10:00:56;;;;;;;1.30;0.63;;;;;;;16.50;88.46;101006.28;5042790;28;20229;-72
2022/07/16 10:03:23;;;;;;;1.17;0.73;;;;;;;16.63;87.99;101003.94;5041213;28;20204;-72
2022/07/16 10:05:51;;;;;;;0.63;0.63;;;;;;;16.74;86.21;101006.06;5038140;28;20199;-71
2022/07/16 10:08:17;;;;;;;0.70;0.70;;;;;;;16.88;86.68;101006.31;5038225;28;20206;-72
2022/07/16 10:10:44;;;;;;;1.03;0.90;;;;;;;17.06;85.04;100999.31;5037839;28;20226;-72
2022/07/16 10:13:11;;;;;;;0.80;0.80;;;;;;;17.23;82.49;101002.00;5043047;28;20203;-71
2022/07/16 10:15:39;;;;;;;1.03;0.90;;;;;;;17.56;81.78;101006.59;5038471;28;20214;-72
2022/07/16 10:18:34;;;;;;;0.80;0.80;;;;;;;17.92;78.03;101000.44;5036380;28;20219;-71
2022/07/16 10:21:07;;;;;;;1.67;0.80;;;;;;;18.32;76.41;100990.44;5041599;28;20234;-72
2022/07/16 10:23:35;;;;;;;0.83;0.57;;;;;;;18.72;75.74;100998.03;5034228;28;20207;-72
2022/07/16 10:26:05;;;;;;;0.60;0.60;;;;;;;18.86;72.47;101005.22;5041418;28;20576;-71
2022/07/16 10:28:40;;;;;;;0.80;0.80;;;;;;;18.94;71.09;100999.50;5042219;28;20203;-72
2022/07/16 10:31:31;;;;;;;0.83;0.70;;;;;;;19.28;71.05;100991.41;5040785;28;20226;-72
2022/07/16 10:34:36;;;;;;;2.70;0.70;;;;;;;19.77;69.52;100998.34;5029684;28;20208;-72
2022/07/16 10:37:06;;;;;;;0.70;0.70;;;;;;;19.42;71.20;101009.13;5038403;28;20226;-72
2022/07/16 10:39:33;;;;;;;1.60;0.80;;;;;;;19.75;71.33;101002.00;5037801;28;20219;-72
2022/07/16 10:42:01;;;;;;;1.53;0.60;;;;;;;19.98;70.71;100995.34;5039207;28;20562;-72
2022/07/16 10:44:43;;;;;;;1.60;0.80;;;;;;;20.07;68.84;100989.50;5042544;28;20204;-72
2022/07/16 10:47:10;;;;;;;2.50;0.80;;;;;;;19.96;68.85;100984.00;5034194;28;20472;-71
2022/07/16 10:49:37;;;;;;;0.67;0.67;;;;;;;20.41;66.74;100985.63;5039637;28;20211;-72
2022/07/16 10:52:08;;;;;;;0.60;0.60;;;;;;;20.72;64.40;100996.16;5037631;28;20203;-72
2022/07/16 10:54:37;;;;;;;0.70;0.70;;;;;;;21.00;63.13;101005.84;5037363;28;20287;-72
2022/07/16 10:57:05;;;;;;;1.37;0.80;;;;;;;21.39;63.37;100998.94;5040175;28;20341;-72
2022/07/16 10:59:33;;;;;;;1.00;0.90;;;;;;;21.28;63.04;100996.13;5036592;28;20628;-72
2022/07/16 11:02:01;;;;;;;0.60;0.60;;;;;;;21.30;64.47;100995.09;5040686;28;20496;-72
2022/07/16 11:04:34;;;;;;;3.20;0.97;;;;;;;21.22;63.05;100993.88;5038477;28;20196;-72
2022/07/16 11:07:02;;;;;;;0.60;0.60;;;;;;;21.35;61.70;100989.47;5037636;28;20211;-72
2022/07/16 11:09:31;;;;;;;0.87;0.73;;;;;;;21.20;63.08;100985.19;5040356;28;20219;-72
2022/07/16 11:12:08;;;;;;;0.70;0.70;;;;;;;21.03;64.69;100981.81;5034918;28;20325;-72
2022/07/16 11:14:36;;;;;;;0.60;0.60;;;;;;;20.80;63.47;100985.94;5034049;28;20606;-72
2022/07/16 11:17:03;;;;;;;0.77;0.77;;;;;;;20.38;63.58;101000.88;5044500;28;20234;-72
2022/07/16 11:19:30;;;;;;;0.73;0.70;;;;;;;20.23;64.46;100998.22;5040523;28;20219;-72
2022/07/16 11:21:58;;;;;;;0.80;0.80;;;;;;;20.16;65.07;100996.03;5037723;28;20206;-71
2022/07/16 11:24:25;;;;;;;1.37;0.90;;;;;;;19.92;64.44;101003.66;5034785;28;20720;-72
2022/07/16 11:26:54;;;;;;;0.90;0.70;;;;;;;19.80;65.13;100998.13;5036621;28;20200;-72
2022/07/16 11:29:21;;;;;;;0.70;0.70;;;;;;;20.25;66.09;100984.88;5034655;28;20348;-72
2022/07/16 11:31:49;;;;;;;0.80;0.80;;;;;;;20.80;65.07;100985.94;5039100;28;20663;-72